createdAt,value
2022-12-11T00:00:24.938Z,18.80
2022-12-11T00:01:14.124Z,19.30
2022-12-11T00:02:01.370Z,18.98
2022-12-11T00:02:48.429Z,18.77
2022-12-11T00:03:35.302Z,17.95
2022-12-11T00:04:22.309Z,18.83
2022-12-11T00:05:09.669Z,19.08
2022-12-11T00:05:56.670Z,18.65
2022-12-11T00:06:43.611Z,18.23
2022-12-11T00:07:30.398Z,19.35
2022-12-11T00:08:17.348Z,18.20
2022-12-11T00:09:04.271Z,17.60
2022-12-11T00:09:51.219Z,18.52
2022-12-11T00:10:38.309Z,16.40
2022-12-11T00:11:25.229Z,18.77
2022-12-11T00:12:12.183Z,18.50
2022-12-11T00:12:58.981Z,17.77
2022-12-11T00:13:47.295Z,17.90
2022-12-11T00:14:34.279Z,18.73
2022-12-11T00:15:21.087Z,17.90
2022-12-11T00:16:08.610Z,16.17
2022-12-11T00:16:55.879Z,17.42
2022-12-11T00:17:42.691Z,18.60
2022-12-11T00:18:29.512Z,18.08
2022-12-11T00:19:16.895Z,18.85
2022-12-11T00:20:05.250Z,17.17
2022-12-11T00:20:52.135Z,18.17
2022-12-11T00:21:38.926Z,17.25
2022-12-11T00:22:25.713Z,18.42
2022-12-11T00:23:12.744Z,16.85
2022-12-11T00:23:59.554Z,17.98
2022-12-11T00:24:46.713Z,17.45
2022-12-11T00:25:33.511Z,18.27
2022-12-11T00:26:20.496Z,17.67
2022-12-11T00:27:08.133Z,17.30
2022-12-11T00:27:54.884Z,17.73
2022-12-11T00:28:42.705Z,18.23
2022-12-11T00:29:29.513Z,17.12
2022-12-11T00:30:16.559Z,18.62
2022-12-11T00:31:08.115Z,17.42
2022-12-11T00:31:54.887Z,16.90
2022-12-11T00:32:42.366Z,17.92
2022-12-11T00:33:29.116Z,17.17
2022-12-11T00:34:15.925Z,16.80
2022-12-11T00:35:02.776Z,17.52
2022-12-11T00:35:49.566Z,17.33
2022-12-11T00:36:36.334Z,17.05
2022-12-11T00:37:23.207Z,17.55
2022-12-11T00:38:17.724Z,16.10
2022-12-11T00:39:05.347Z,17.23
2022-12-11T00:39:52.116Z,16.50
2022-12-11T00:40:38.925Z,16.52
2022-12-11T00:41:25.765Z,17.40
2022-12-11T00:42:12.623Z,17.37
2022-12-11T00:42:59.386Z,16.30
2022-12-11T00:43:46.796Z,16.30
2022-12-11T00:44:33.773Z,17.33
2022-12-11T00:45:20.625Z,16.85
2022-12-11T00:46:07.477Z,16.98
2022-12-11T00:46:54.275Z,16.62
2022-12-11T00:47:41.043Z,17.00
2022-12-11T00:48:27.875Z,17.17
2022-12-11T00:49:14.695Z,16.30
2022-12-11T00:50:01.536Z,16.40
2022-12-11T00:50:48.333Z,15.90
2022-12-11T00:51:35.185Z,16.23
2022-12-11T00:52:22.616Z,15.52
2022-12-11T00:53:09.387Z,16.00
2022-12-11T00:53:56.206Z,17.08
2022-12-11T00:54:42.976Z,17.20
2022-12-11T00:55:29.876Z,16.00
2022-12-11T00:56:19.604Z,15.93
2022-12-11T00:57:06.366Z,17.15
2022-12-11T00:57:53.264Z,16.85
2022-12-11T00:58:40.058Z,16.08
2022-12-11T00:59:28.744Z,17.58
2022-12-11T01:00:15.782Z,15.63
2022-12-11T01:01:10.184Z,16.87
2022-12-11T01:01:57.044Z,16.20
2022-12-11T01:02:43.822Z,16.37
2022-12-11T01:03:30.628Z,15.82
2022-12-11T01:04:17.395Z,16.80
2022-12-11T01:05:04.513Z,15.40
2022-12-11T01:05:54.787Z,17.60
2022-12-11T01:06:41.614Z,16.37
2022-12-11T01:07:28.405Z,16.50
2022-12-11T01:08:15.190Z,17.05
2022-12-11T01:09:20.436Z,15.38
2022-12-11T01:10:25.340Z,15.05
2022-12-11T01:11:14.205Z,16.65
2022-12-11T01:12:01.013Z,16.87
2022-12-11T01:12:47.754Z,15.90
2022-12-11T01:13:34.666Z,16.17
2022-12-11T01:14:21.466Z,16.90
2022-12-11T01:15:08.880Z,15.85
2022-12-11T01:15:55.877Z,15.52
2022-12-11T01:16:42.763Z,16.12
2022-12-11T01:17:29.745Z,16.98
2022-12-11T01:18:16.574Z,15.05
2022-12-11T01:19:03.808Z,15.52
2022-12-11T01:19:50.592Z,15.50
2022-12-11T01:20:38.505Z,15.93
2022-12-11T01:21:25.324Z,16.52
2022-12-11T01:22:12.114Z,16.67
2022-12-11T01:23:00.255Z,15.35
2022-12-11T01:23:47.025Z,15.27
2022-12-11T01:24:33.866Z,15.18
2022-12-11T01:25:20.697Z,15.60
2022-12-11T01:26:12.949Z,15.85
2022-12-11T01:26:59.746Z,14.85
2022-12-11T01:27:46.563Z,15.27
2022-12-11T01:28:33.433Z,16.17
2022-12-11T01:29:20.193Z,15.32
2022-12-11T01:30:09.175Z,15.30
2022-12-11T01:30:55.968Z,15.73
2022-12-11T01:31:42.813Z,15.30
2022-12-11T01:32:29.595Z,16.15
2022-12-11T01:33:16.385Z,16.08
2022-12-11T01:34:03.315Z,15.75
2022-12-11T01:34:50.164Z,14.98
2022-12-11T01:35:36.975Z,14.60
2022-12-11T01:36:24.043Z,14.85
2022-12-11T01:37:10.854Z,16.17
2022-12-11T01:37:57.625Z,15.07
2022-12-11T01:38:45.658Z,15.15
2022-12-11T01:39:32.515Z,17.12
2022-12-11T01:40:20.380Z,15.38
2022-12-11T01:41:07.575Z,14.75
2022-12-11T01:42:01.526Z,14.48
2022-12-11T01:42:48.409Z,14.82
2022-12-11T01:43:35.867Z,15.30
2022-12-11T01:44:22.615Z,15.80
2022-12-11T01:45:21.554Z,15.40
2022-12-11T01:46:08.396Z,14.87
2022-12-11T01:46:55.246Z,15.27
2022-12-11T01:47:42.033Z,14.80
2022-12-11T01:48:30.457Z,14.65
2022-12-11T01:49:19.405Z,14.40
2022-12-11T01:50:06.474Z,15.15
2022-12-11T01:51:02.026Z,14.48
2022-12-11T01:52:07.105Z,16.08
2022-12-11T01:52:53.955Z,14.38
2022-12-11T01:53:43.515Z,15.18
2022-12-11T01:54:30.609Z,14.95
2022-12-11T01:55:18.445Z,14.70
2022-12-11T01:56:06.855Z,16.00
2022-12-11T01:56:56.196Z,14.13
2022-12-11T01:57:44.745Z,14.55
2022-12-11T01:58:34.465Z,13.95
2022-12-11T01:59:25.426Z,14.27
2022-12-11T02:00:13.048Z,14.05
2022-12-11T02:01:00.577Z,15.25
2022-12-11T02:01:53.864Z,15.05
2022-12-11T02:02:40.765Z,15.25
2022-12-11T02:03:27.752Z,13.80
2022-12-11T02:04:15.575Z,14.45
2022-12-11T02:05:03.855Z,14.57
2022-12-11T02:05:50.926Z,14.43
2022-12-11T02:06:42.167Z,14.68
2022-12-11T02:07:31.265Z,15.27
2022-12-11T02:08:18.345Z,13.75
2022-12-11T02:09:08.245Z,14.98
2022-12-11T02:09:55.128Z,14.80
2022-12-11T02:11:22.465Z,15.13
2022-12-11T02:12:38.385Z,12.93
2022-12-11T02:13:50.086Z,14.10
2022-12-11T02:15:01.214Z,14.38
2022-12-11T02:16:01.227Z,13.23
2022-12-11T02:17:00.295Z,13.80
2022-12-11T02:18:01.966Z,14.13
2022-12-11T02:18:56.214Z,14.20
2022-12-11T02:19:51.875Z,13.70
2022-12-11T02:20:43.643Z,14.63
2022-12-11T02:21:41.857Z,13.80
2022-12-11T02:22:46.596Z,13.32
2022-12-11T02:24:12.184Z,13.88
2022-12-11T02:25:10.188Z,14.63
2022-12-11T02:26:04.205Z,13.75
2022-12-11T02:27:03.323Z,15.02
2022-12-11T02:28:04.894Z,14.27
2022-12-11T02:28:56.807Z,14.82
2022-12-11T02:29:54.660Z,15.05
2022-12-11T02:30:42.685Z,14.75
2022-12-11T02:32:07.114Z,14.50
2022-12-11T02:32:58.747Z,13.38
2022-12-11T02:33:56.896Z,14.45
2022-12-11T02:34:48.386Z,15.05
2022-12-11T02:35:38.813Z,14.32
2022-12-11T02:36:28.776Z,15.48
2022-12-11T02:37:20.665Z,13.57
2022-12-11T02:38:15.854Z,13.93
2022-12-11T02:39:03.827Z,13.73
2022-12-11T02:39:52.576Z,14.05
2022-12-11T02:40:40.557Z,14.87
2022-12-11T02:41:27.917Z,14.93
2022-12-11T02:42:16.525Z,14.68
2022-12-11T02:43:06.246Z,15.45
2022-12-11T02:43:54.046Z,15.35
2022-12-11T02:44:41.176Z,15.43
2022-12-11T02:45:28.448Z,16.27
2022-12-11T02:46:15.933Z,14.80
2022-12-11T02:47:04.567Z,14.18
2022-12-11T02:47:52.116Z,14.35
2022-12-11T02:48:40.934Z,13.93
2022-12-11T02:49:28.494Z,14.38
2022-12-11T02:50:18.754Z,14.60
2022-12-11T02:51:07.017Z,14.98
2022-12-11T02:51:55.545Z,14.48
2022-12-11T02:52:43.265Z,15.93
2022-12-11T02:53:31.674Z,15.43
2022-12-11T02:54:21.489Z,14.30
2022-12-11T02:55:09.814Z,15.38
2022-12-11T02:56:04.795Z,14.57
2022-12-11T02:56:55.884Z,16.00
2022-12-11T02:57:43.406Z,15.15
2022-12-11T02:58:32.985Z,15.27
2022-12-11T02:59:24.484Z,15.13
2022-12-11T03:00:12.775Z,13.88
2022-12-11T03:00:59.649Z,16.48
2022-12-11T03:01:47.487Z,16.08
2022-12-11T03:02:34.466Z,14.73
2022-12-11T03:03:22.154Z,15.57
2022-12-11T03:04:09.228Z,16.00
2022-12-11T03:04:57.529Z,15.57
2022-12-11T03:05:46.306Z,15.30
2022-12-11T03:06:37.108Z,15.77
2022-12-11T03:07:28.916Z,15.38
2022-12-11T03:08:18.038Z,15.30
2022-12-11T03:09:05.886Z,16.12
2022-12-11T03:09:52.949Z,15.40
2022-12-11T03:10:39.737Z,16.75
2022-12-11T03:11:26.551Z,15.38
2022-12-11T03:12:20.407Z,15.05
2022-12-11T03:13:07.176Z,14.75
2022-12-11T03:13:54.378Z,15.43
2022-12-11T03:14:42.331Z,16.45
2022-12-11T03:15:36.485Z,16.00
2022-12-11T03:16:36.363Z,16.77
2022-12-11T03:17:33.494Z,16.27
2022-12-11T03:18:42.044Z,15.02
2022-12-11T03:19:36.032Z,14.95
2022-12-11T03:20:40.864Z,15.93
2022-12-11T03:21:38.736Z,16.80
2022-12-11T03:22:46.496Z,14.55
2022-12-11T03:23:54.871Z,15.70
2022-12-11T03:24:46.196Z,15.57
2022-12-11T03:25:44.287Z,15.18
2022-12-11T03:26:33.164Z,15.55
2022-12-11T03:27:28.017Z,15.73
2022-12-11T03:28:21.705Z,14.35
2022-12-11T03:29:16.376Z,16.45
2022-12-11T03:30:08.249Z,15.95
2022-12-11T03:30:56.196Z,15.88
2022-12-11T03:31:51.196Z,15.70
2022-12-11T03:32:50.995Z,14.02
2022-12-11T03:33:39.827Z,14.68
2022-12-11T03:34:45.084Z,16.58
2022-12-11T03:35:41.861Z,15.10
2022-12-11T03:36:32.602Z,15.20
2022-12-11T03:37:20.054Z,15.32
2022-12-11T03:38:10.034Z,15.57
2022-12-11T03:39:12.958Z,12.70
2022-12-11T03:40:04.164Z,15.30
2022-12-11T03:40:54.584Z,15.65
2022-12-11T03:41:43.035Z,16.45
2022-12-11T03:42:30.046Z,14.68
2022-12-11T03:43:17.294Z,15.25
2022-12-11T03:44:04.283Z,15.02
2022-12-11T03:44:52.434Z,16.17
2022-12-11T03:45:40.476Z,15.52
2022-12-11T03:46:35.673Z,15.40
2022-12-11T03:47:24.513Z,13.48
2022-12-11T03:48:12.152Z,16.60
2022-12-11T03:49:02.424Z,15.43
2022-12-11T03:49:50.126Z,16.77
2022-12-11T03:50:37.385Z,14.73
2022-12-11T03:51:24.444Z,14.93
2022-12-11T03:52:12.896Z,16.65
2022-12-11T03:53:01.042Z,16.52
2022-12-11T03:53:48.135Z,17.15
2022-12-11T03:54:35.297Z,17.02
2022-12-11T03:55:23.005Z,16.45
2022-12-11T03:56:11.164Z,16.70
2022-12-11T03:56:59.802Z,16.73
2022-12-11T03:57:46.585Z,15.40
2022-12-11T03:58:33.561Z,16.25
2022-12-11T03:59:20.326Z,16.45
2022-12-11T04:00:10.135Z,15.63
2022-12-11T04:00:56.915Z,17.27
2022-12-11T04:01:43.803Z,15.98
2022-12-11T04:02:31.122Z,17.08
2022-12-11T04:03:18.192Z,17.12
2022-12-11T04:04:05.113Z,17.85
2022-12-11T04:04:51.905Z,17.58
2022-12-11T04:05:38.986Z,17.33
2022-12-11T04:06:25.754Z,16.35
2022-12-11T04:07:12.536Z,17.70
2022-12-11T04:07:59.359Z,18.30
2022-12-11T04:08:46.201Z,17.70
2022-12-11T04:09:33.379Z,17.60
2022-12-11T04:10:20.170Z,18.33
2022-12-11T04:11:25.925Z,17.30
2022-12-11T04:12:12.705Z,16.35
2022-12-11T04:12:59.475Z,16.55
2022-12-11T04:13:46.345Z,17.42
2022-12-11T04:14:51.770Z,15.80
2022-12-11T04:15:39.782Z,17.00
2022-12-11T04:16:26.624Z,16.35
2022-12-11T04:17:33.397Z,16.30
2022-12-11T04:18:38.633Z,16.52
2022-12-11T04:19:44.777Z,17.40
2022-12-11T04:20:50.315Z,18.08
2022-12-11T04:21:55.915Z,16.20
2022-12-11T04:23:01.534Z,16.60
2022-12-11T04:24:07.080Z,16.27
2022-12-11T04:24:53.915Z,16.30
2022-12-11T04:25:40.716Z,16.60
2022-12-11T04:26:27.576Z,17.12
2022-12-11T04:27:14.326Z,17.87
2022-12-11T04:28:01.094Z,17.98
2022-12-11T04:28:48.394Z,17.40
2022-12-11T04:29:35.265Z,18.08
2022-12-11T04:30:28.006Z,19.08
2022-12-11T04:31:20.549Z,17.10
2022-12-11T04:32:07.375Z,15.82
2022-12-11T04:32:55.166Z,17.60
2022-12-11T04:33:42.184Z,17.40
2022-12-11T04:34:29.119Z,17.90
2022-12-11T04:35:15.974Z,17.58
2022-12-11T04:36:02.806Z,17.67
2022-12-11T04:36:49.605Z,19.23
2022-12-11T04:37:36.799Z,17.95
2022-12-11T04:38:23.585Z,19.55
2022-12-11T04:39:10.387Z,17.70
2022-12-11T04:39:57.175Z,16.08
2022-12-11T04:40:43.995Z,17.77
2022-12-11T04:41:30.913Z,18.55
2022-12-11T04:42:17.654Z,18.27
2022-12-11T04:43:04.415Z,16.75
2022-12-11T04:43:51.285Z,18.42
2022-12-11T04:44:38.075Z,16.20
2022-12-11T04:45:24.864Z,16.62
2022-12-11T04:46:15.046Z,16.90
2022-12-11T04:47:01.884Z,18.90
2022-12-11T04:47:48.756Z,16.73
2022-12-11T04:48:35.816Z,17.75
2022-12-11T04:49:22.596Z,17.62
2022-12-11T04:50:11.205Z,18.05
2022-12-11T04:50:58.644Z,18.40
2022-12-11T04:51:45.414Z,17.83
2022-12-11T04:52:32.234Z,18.12
2022-12-11T04:53:18.995Z,18.45
2022-12-11T04:54:05.795Z,17.15
2022-12-11T04:54:52.626Z,18.62
2022-12-11T04:55:39.864Z,18.95
2022-12-11T04:56:26.625Z,19.67
2022-12-11T04:57:13.496Z,19.48
2022-12-11T04:58:00.346Z,20.12
2022-12-11T04:58:48.468Z,20.95
2022-12-11T04:59:35.472Z,20.83
2022-12-11T05:00:22.896Z,20.33
2022-12-11T05:01:11.371Z,21.48
2022-12-11T05:01:58.219Z,20.98
2022-12-11T05:02:45.152Z,21.27
2022-12-11T05:03:32.006Z,19.85
2022-12-11T05:04:18.784Z,20.70
2022-12-11T05:05:06.752Z,20.52
2022-12-11T05:05:54.285Z,21.33
2022-12-11T05:06:41.075Z,21.40
2022-12-11T05:07:27.897Z,21.30
2022-12-11T05:08:14.712Z,21.75
2022-12-11T05:09:01.554Z,20.75
2022-12-11T05:09:48.415Z,21.27
2022-12-11T05:10:35.244Z,20.67
2022-12-11T05:11:22.375Z,21.40
2022-12-11T05:12:09.415Z,21.08
2022-12-11T05:12:56.195Z,21.77
2022-12-11T05:13:43.701Z,22.85
2022-12-11T05:14:32.255Z,20.42
2022-12-11T05:15:19.093Z,21.40
2022-12-11T05:16:07.611Z,20.45
2022-12-11T05:16:54.447Z,22.00
2022-12-11T05:17:41.265Z,21.98
2022-12-11T05:18:28.027Z,21.73
2022-12-11T05:19:14.864Z,21.52
2022-12-11T05:20:01.879Z,21.25
2022-12-11T05:21:01.888Z,21.08
2022-12-11T05:21:48.674Z,21.27
2022-12-11T05:22:35.633Z,22.08
2022-12-11T05:23:22.706Z,21.30
2022-12-11T05:24:09.545Z,20.92
2022-12-11T05:24:56.324Z,22.52
2022-12-11T05:25:43.115Z,21.52
2022-12-11T05:26:29.972Z,22.85
2022-12-11T05:27:16.775Z,22.33
2022-12-11T05:28:03.774Z,22.85
2022-12-11T05:28:54.506Z,21.52
2022-12-11T05:29:42.071Z,20.85
2022-12-11T05:30:28.945Z,20.65
2022-12-11T05:31:18.764Z,22.02
2022-12-11T05:32:05.774Z,20.65
2022-12-11T05:32:52.595Z,21.17
2022-12-11T05:33:39.404Z,21.80
2022-12-11T05:34:26.287Z,22.02
2022-12-11T05:35:13.276Z,20.62
2022-12-11T05:36:00.466Z,19.83
2022-12-11T05:36:47.576Z,21.12
2022-12-11T05:37:34.836Z,20.55
2022-12-11T05:38:22.788Z,19.75
2022-12-11T05:39:11.824Z,19.65
2022-12-11T05:39:58.586Z,22.50
2022-12-11T05:40:45.565Z,20.35
2022-12-11T05:41:33.126Z,22.00
2022-12-11T05:42:24.014Z,20.98
2022-12-11T05:43:13.895Z,22.67
2022-12-11T05:44:00.835Z,19.12
2022-12-11T05:44:49.784Z,21.42
2022-12-11T05:45:37.106Z,20.80
2022-12-11T05:46:26.204Z,20.12
2022-12-11T05:47:13.025Z,20.80
2022-12-11T05:47:59.844Z,20.23
2022-12-11T05:48:48.336Z,19.42
2022-12-11T05:49:35.105Z,20.55
2022-12-11T05:50:21.894Z,21.05
2022-12-11T05:51:09.659Z,19.90
2022-12-11T05:51:56.435Z,18.98
2022-12-11T05:52:43.244Z,20.58
2022-12-11T05:53:30.354Z,19.90
2022-12-11T05:54:17.450Z,19.85
2022-12-11T05:55:04.406Z,20.25
2022-12-11T05:55:51.289Z,19.77
2022-12-11T05:56:38.145Z,19.35
2022-12-11T05:57:24.938Z,19.12
2022-12-11T05:58:11.794Z,19.67
2022-12-11T05:58:59.457Z,19.98
2022-12-11T05:59:46.373Z,19.37
2022-12-11T06:00:36.209Z,20.20
2022-12-11T06:01:26.425Z,16.70
2022-12-11T06:02:13.350Z,19.87
2022-12-11T06:03:00.298Z,18.40
2022-12-11T06:03:47.696Z,20.67
2022-12-11T06:04:34.525Z,18.98
2022-12-11T06:05:21.325Z,19.95
2022-12-11T06:06:08.434Z,21.17
2022-12-11T06:06:55.430Z,19.95
2022-12-11T06:07:42.225Z,18.87
2022-12-11T06:08:29.361Z,18.60
2022-12-11T06:09:17.387Z,19.95
2022-12-11T06:10:04.744Z,19.40
2022-12-11T06:10:51.660Z,18.80
2022-12-11T06:11:39.194Z,20.27
2022-12-11T06:12:25.935Z,19.73
2022-12-11T06:13:13.187Z,19.20
2022-12-11T06:14:02.184Z,18.62
2022-12-11T06:14:48.955Z,19.00
2022-12-11T06:15:35.716Z,19.83
2022-12-11T06:16:23.334Z,19.90
2022-12-11T06:17:10.284Z,17.45
2022-12-11T06:17:57.078Z,19.20
2022-12-11T06:18:45.282Z,19.83
2022-12-11T06:19:36.735Z,19.62
2022-12-11T06:20:24.034Z,19.42
2022-12-11T06:21:17.675Z,20.12
2022-12-11T06:22:05.048Z,19.20
2022-12-11T06:22:51.845Z,18.50
2022-12-11T06:23:38.615Z,19.45
2022-12-11T06:24:25.416Z,19.85
2022-12-11T06:25:12.352Z,18.33
2022-12-11T06:25:59.416Z,20.55
2022-12-11T06:26:46.265Z,19.00
2022-12-11T06:27:33.036Z,19.08
2022-12-11T06:28:19.824Z,20.58
2022-12-11T06:29:11.036Z,19.08
2022-12-11T06:29:59.684Z,19.52
2022-12-11T06:30:46.496Z,17.65
2022-12-11T06:31:33.371Z,17.95
2022-12-11T06:32:20.186Z,18.58
2022-12-11T06:33:07.455Z,17.65
2022-12-11T06:33:54.555Z,18.40
2022-12-11T06:34:41.336Z,18.25
2022-12-11T06:35:28.205Z,17.95
2022-12-11T06:36:17.844Z,18.90
2022-12-11T06:37:04.717Z,17.85
2022-12-11T06:37:51.521Z,19.83
2022-12-11T06:38:38.664Z,18.67
2022-12-11T06:39:25.524Z,19.30
2022-12-11T06:40:15.026Z,19.27
2022-12-11T06:41:04.963Z,18.33
2022-12-11T06:41:51.737Z,17.92
2022-12-11T06:42:39.146Z,17.08
2022-12-11T06:43:26.235Z,17.95
2022-12-11T06:44:13.054Z,17.62
2022-12-11T06:45:00.037Z,17.60
2022-12-11T06:45:46.803Z,19.05
2022-12-11T06:46:33.595Z,18.52
2022-12-11T06:47:20.415Z,18.12
2022-12-11T06:48:07.213Z,19.77
2022-12-11T06:48:53.993Z,18.83
2022-12-11T06:49:40.932Z,18.10
2022-12-11T06:50:27.948Z,18.73
2022-12-11T06:51:19.885Z,18.95
2022-12-11T06:52:06.776Z,20.37
2022-12-11T06:52:53.585Z,20.08
2022-12-11T06:53:40.781Z,19.60
2022-12-11T06:54:28.856Z,18.58
2022-12-11T06:55:15.771Z,18.27
2022-12-11T06:56:07.748Z,18.45
2022-12-11T06:56:54.619Z,18.42
2022-12-11T06:57:41.575Z,18.75
2022-12-11T06:58:28.415Z,18.95
2022-12-11T06:59:15.256Z,19.73
2022-12-11T07:00:02.066Z,19.15
2022-12-11T07:00:48.953Z,19.25
2022-12-11T07:01:35.821Z,18.62
2022-12-11T07:02:23.164Z,20.08
2022-12-11T07:03:10.238Z,19.05
2022-12-11T07:03:58.752Z,19.98
2022-12-11T07:04:48.289Z,19.75
2022-12-11T07:05:37.286Z,20.17
2022-12-11T07:06:25.434Z,19.08
2022-12-11T07:07:12.610Z,19.62
2022-12-11T07:07:59.440Z,18.25
2022-12-11T07:08:46.354Z,18.90
2022-12-11T07:09:33.336Z,19.17
2022-12-11T07:10:20.174Z,18.50
2022-12-11T07:11:10.035Z,18.92
2022-12-11T07:11:57.147Z,19.30
2022-12-11T07:12:43.944Z,19.50
2022-12-11T07:13:30.715Z,20.67
2022-12-11T07:14:18.025Z,18.87
2022-12-11T07:15:08.537Z,20.70
2022-12-11T07:15:55.604Z,20.02
2022-12-11T07:16:42.451Z,19.40
2022-12-11T07:17:29.988Z,18.70
2022-12-11T07:18:16.860Z,20.15
2022-12-11T07:19:03.747Z,19.90
2022-12-11T07:19:50.617Z,20.20
2022-12-11T07:20:37.455Z,20.80
2022-12-11T07:21:24.266Z,20.00
2022-12-11T07:22:11.086Z,21.37
2022-12-11T07:22:57.904Z,19.65
2022-12-11T07:23:44.744Z,19.98
2022-12-11T07:24:31.514Z,22.25
2022-12-11T07:25:18.314Z,21.40
2022-12-11T07:26:06.815Z,22.70
2022-12-11T07:26:53.604Z,20.52
2022-12-11T07:27:40.464Z,19.95
2022-12-11T07:28:27.289Z,22.02
2022-12-11T07:29:14.226Z,20.98
2022-12-11T07:30:01.025Z,21.90
2022-12-11T07:30:47.846Z,20.00
2022-12-11T07:31:34.870Z,18.92
2022-12-11T07:32:22.221Z,20.33
2022-12-11T07:33:09.106Z,18.62
2022-12-11T07:34:05.495Z,20.08
2022-12-11T07:34:52.346Z,18.15
2022-12-11T07:35:39.116Z,20.08
2022-12-11T07:36:26.596Z,24.37
2022-12-11T07:37:13.425Z,21.80
2022-12-11T07:38:00.319Z,20.98
2022-12-11T07:38:47.248Z,21.23
2022-12-11T07:39:34.055Z,20.40
2022-12-11T07:40:20.872Z,22.90
2022-12-11T07:41:11.117Z,21.10
2022-12-11T07:41:57.885Z,19.95
2022-12-11T07:42:46.406Z,22.35
2022-12-11T07:43:34.239Z,31.87
2022-12-11T07:44:21.284Z,43.30
2022-12-11T07:45:08.933Z,43.10
2022-12-11T07:45:55.943Z,26.77
2022-12-11T07:46:42.829Z,43.85
2022-12-11T07:47:29.605Z,44.42
2022-12-11T07:48:16.396Z,21.17
2022-12-11T07:49:05.364Z,23.90
2022-12-11T07:49:52.136Z,38.38
2022-12-11T07:50:40.018Z,22.40
2022-12-11T07:51:29.537Z,23.87
2022-12-11T07:52:17.534Z,27.92
2022-12-11T07:53:04.335Z,30.58
2022-12-11T07:53:51.335Z,23.92
2022-12-11T07:54:38.129Z,31.67
2022-12-11T07:55:24.889Z,30.10
2022-12-11T07:56:11.950Z,23.90
2022-12-11T07:56:58.734Z,23.95
2022-12-11T07:57:45.564Z,27.65
2022-12-11T07:58:32.348Z,27.35
2022-12-11T07:59:19.092Z,22.27
2022-12-11T08:00:06.651Z,23.10
2022-12-11T08:00:53.775Z,21.98
2022-12-11T08:01:42.365Z,21.98
2022-12-11T08:02:32.620Z,22.30
2022-12-11T08:03:25.216Z,21.70
2022-12-11T08:04:15.937Z,20.10
2022-12-11T08:05:02.878Z,20.27
2022-12-11T08:05:50.477Z,21.25
2022-12-11T08:06:39.489Z,21.65
2022-12-11T08:07:26.278Z,22.10
2022-12-11T08:08:13.128Z,20.37
2022-12-11T08:09:01.868Z,20.95
2022-12-11T08:09:48.724Z,20.27
2022-12-11T08:10:35.575Z,21.37
2022-12-11T08:11:22.494Z,21.17
2022-12-11T08:12:09.309Z,21.02
2022-12-11T08:12:56.074Z,20.80
2022-12-11T08:13:43.379Z,20.45
2022-12-11T08:14:30.176Z,18.42
2022-12-11T08:15:17.157Z,19.33
2022-12-11T08:16:07.794Z,18.25
2022-12-11T08:17:41.359Z,18.83
2022-12-11T08:18:28.129Z,17.05
2022-12-11T08:19:15.414Z,18.27
2022-12-11T08:20:02.238Z,18.90
2022-12-11T08:20:49.040Z,17.87
2022-12-11T08:21:35.807Z,18.77
2022-12-11T08:22:22.605Z,18.20
2022-12-11T08:23:09.385Z,17.95
2022-12-11T08:23:56.321Z,18.25
2022-12-11T08:24:43.165Z,18.75
2022-12-11T08:25:30.028Z,18.87
2022-12-11T08:26:23.055Z,17.30
2022-12-11T08:27:09.883Z,17.83
2022-12-11T08:27:56.715Z,17.73
2022-12-11T08:28:43.532Z,16.40
2022-12-11T08:29:30.296Z,17.10
2022-12-11T08:30:17.194Z,16.08
2022-12-11T08:31:06.064Z,15.85
2022-12-11T08:31:53.014Z,15.70
2022-12-11T08:32:39.808Z,16.42
2022-12-11T08:33:26.653Z,16.02
2022-12-11T08:34:14.316Z,16.00
2022-12-11T08:35:01.200Z,15.88
2022-12-11T08:35:48.145Z,17.52
2022-12-11T08:36:34.945Z,16.37
2022-12-11T08:37:21.722Z,18.95
2022-12-11T08:38:08.566Z,16.62
2022-12-11T08:38:56.424Z,16.95
2022-12-11T08:39:44.014Z,15.50
2022-12-11T08:40:30.954Z,16.35
2022-12-11T08:41:26.286Z,17.33
2022-12-11T08:42:13.163Z,15.27
2022-12-11T08:42:59.954Z,15.10
2022-12-11T08:43:47.296Z,15.93
2022-12-11T08:44:34.155Z,15.68
2022-12-11T08:45:20.934Z,15.73
2022-12-11T08:46:08.485Z,16.95
2022-12-11T08:46:55.324Z,16.67
2022-12-11T08:47:42.246Z,16.48
2022-12-11T08:48:29.035Z,16.20
2022-12-11T08:49:15.794Z,17.23
2022-12-11T08:50:03.096Z,17.08
2022-12-11T08:50:49.845Z,15.07
2022-12-11T08:51:36.869Z,16.65
2022-12-11T08:52:24.025Z,15.45
2022-12-11T08:53:10.842Z,16.02
2022-12-11T08:53:59.598Z,13.77
2022-12-11T08:54:46.374Z,15.73
2022-12-11T08:55:33.782Z,14.93
2022-12-11T08:56:21.710Z,15.55
2022-12-11T08:57:08.485Z,14.35
2022-12-11T08:57:55.584Z,13.93
2022-12-11T08:58:43.565Z,15.82
2022-12-11T08:59:30.383Z,15.25
2022-12-11T09:00:18.656Z,15.45
2022-12-11T09:01:13.127Z,14.18
2022-12-11T09:01:59.976Z,15.10
2022-12-11T09:02:46.811Z,15.10
2022-12-11T09:03:34.092Z,14.23
2022-12-11T09:04:20.905Z,15.30
2022-12-11T09:05:09.805Z,14.85
2022-12-11T09:05:56.985Z,14.85
2022-12-11T09:06:43.953Z,13.73
2022-12-11T09:07:30.724Z,14.27
2022-12-11T09:08:17.673Z,13.95
2022-12-11T09:09:04.806Z,14.13
2022-12-11T09:09:51.606Z,13.68
2022-12-11T09:10:38.424Z,14.40
2022-12-11T09:11:28.454Z,14.45
2022-12-11T09:12:15.296Z,10.98
2022-12-11T09:13:02.085Z,14.20
2022-12-11T09:13:48.944Z,14.00
2022-12-11T09:14:35.875Z,12.85
2022-12-11T09:15:22.697Z,13.43
2022-12-11T09:16:12.441Z,13.57
2022-12-11T09:16:59.485Z,13.70
2022-12-11T09:17:46.284Z,13.55
2022-12-11T09:18:33.116Z,13.35
2022-12-11T09:19:20.007Z,13.35
2022-12-11T09:20:07.513Z,12.35
2022-12-11T09:21:04.165Z,12.68
2022-12-11T09:21:50.957Z,12.90
2022-12-11T09:22:37.766Z,14.73
2022-12-11T09:23:24.546Z,13.48
2022-12-11T09:24:12.713Z,13.52
2022-12-11T09:24:59.883Z,14.02
2022-12-11T09:25:46.654Z,13.50
2022-12-11T09:26:33.495Z,12.85
2022-12-11T09:27:21.486Z,13.35
2022-12-11T09:28:08.294Z,13.40
2022-12-11T09:28:55.239Z,13.88
2022-12-11T09:29:42.293Z,13.23
2022-12-11T09:30:29.134Z,13.95
2022-12-11T09:31:18.833Z,14.30
2022-12-11T09:32:05.955Z,12.80
2022-12-11T09:32:53.294Z,14.27
2022-12-11T09:33:40.537Z,13.82
2022-12-11T09:34:29.414Z,12.30
2022-12-11T09:35:16.545Z,12.77
2022-12-11T09:36:04.247Z,13.98
2022-12-11T09:36:51.086Z,14.55
2022-12-11T09:37:37.855Z,14.45
2022-12-11T09:38:24.831Z,14.73
2022-12-11T09:39:12.565Z,13.40
2022-12-11T09:40:04.000Z,14.07
2022-12-11T09:40:54.525Z,14.90
2022-12-11T09:42:02.371Z,13.62
2022-12-11T09:43:21.694Z,13.73
2022-12-11T09:44:11.285Z,12.52
2022-12-11T09:45:02.584Z,13.50
2022-12-11T09:45:50.059Z,14.13
2022-12-11T09:46:38.039Z,14.00
2022-12-11T09:47:46.525Z,14.45
2022-12-11T09:48:34.257Z,13.32
2022-12-11T09:49:35.976Z,13.00
2022-12-11T09:50:26.987Z,13.98
2022-12-11T09:51:27.405Z,14.02
2022-12-11T09:52:17.974Z,13.52
2022-12-11T09:53:19.366Z,12.73
2022-12-11T09:54:06.497Z,13.43
2022-12-11T09:54:56.606Z,14.40
2022-12-11T09:55:52.683Z,12.90
2022-12-11T09:56:47.057Z,13.23
2022-12-11T09:57:54.411Z,13.75
2022-12-11T09:59:09.979Z,13.70
2022-12-11T10:00:04.501Z,13.25
2022-12-11T10:01:19.935Z,13.27
2022-12-11T10:02:28.425Z,13.57
2022-12-11T10:03:54.325Z,13.50
2022-12-11T10:05:12.026Z,11.95
2022-12-11T10:06:47.526Z,13.07
2022-12-11T10:08:17.681Z,13.05
2022-12-11T10:09:25.636Z,13.45
2022-12-11T10:10:15.561Z,13.40
2022-12-11T10:11:23.416Z,12.77
2022-12-11T10:12:13.006Z,13.68
2022-12-11T10:13:12.122Z,13.13
2022-12-11T10:14:36.508Z,13.65
2022-12-11T10:15:29.394Z,12.45
2022-12-11T10:16:39.265Z,12.05
2022-12-11T10:17:30.065Z,12.75
2022-12-11T10:18:21.424Z,12.48
2022-12-11T10:19:37.265Z,13.88
2022-12-11T10:20:29.424Z,12.57
2022-12-11T10:21:17.343Z,13.15
2022-12-11T10:22:04.254Z,14.38
2022-12-11T10:22:52.496Z,13.88
2022-12-11T10:23:45.156Z,14.20
2022-12-11T10:25:09.305Z,13.90
2022-12-11T10:25:54.267Z,13.30
2022-12-11T10:26:41.196Z,14.82
2022-12-11T10:27:33.098Z,15.15
2022-12-11T10:28:21.275Z,14.30
2022-12-11T10:29:14.040Z,14.35
2022-12-11T10:30:22.476Z,14.48
2022-12-11T10:31:25.675Z,13.62
2022-12-11T10:32:25.152Z,13.70
2022-12-11T10:33:11.883Z,13.52
2022-12-11T10:34:21.365Z,14.13
2022-12-11T10:35:10.687Z,14.73
2022-12-11T10:35:58.538Z,14.73
2022-12-11T10:36:45.592Z,13.80
2022-12-11T10:37:32.447Z,15.10
2022-12-11T10:38:31.707Z,13.77
2022-12-11T10:39:20.798Z,13.73